Ingleside on the Bay, Texas
Current Conditions -  °F | °C
As of 2:15 PM on Sunday 25 Jan 2015 (Local Time) from KTFP Reporting Station
Clear Clear  
Wind Chill: 70°   Ceiling: Unl
Heat Index: 70°   Visibility: 10mi
Dew Point: 39°   Wind: 9mph
Humidity: 32%   Direction: 310°NW
Pressure: 30.09"   Gusts: NA
Location:  27.8594°N, 97.2055°W
Report Text: KTFP 252015Z AUTO 31008KT 10SM CLR 21/04 A3009 RMK AO2 T02120038
Loading
Personal Weather Stations






























Interactive Weather Map New forecast layout! Learn more

10-Day Weather Forecast

Advertisements
Track Severe Weather on mobile